• Join FlightAware (Why Join?)
  • Login
  • US Flag 
08:20PM EDT


 

Airport Tracker/Info


-or-


 

Live Flight TrackerFlight Track Log ✈ N926JA ✈ 19-Aug-2013 ✈ KYIP - KYIP

Flight Track Log - Related Links

Times and Time Zones

All times are in EDT time to prevent confusion due to time zone crossing. See the N926JA flight status page for this flight to view local times or setup timezone preferences in your user account.

Time Position Orientation Groundspeed Altitude Reporting Facility
EDT Latitude Longitude Course Direction KTS MPH feet Rate Location/Type
05:28PM 42.2261 -83.5472 235° Southwest 72 83 1,000  Level Cleveland Center
05:29PM 42.2106 -83.5772 235° Southwest 77 89 1,700 600 Climbing Cleveland Center
05:31PM 42.2119 -83.6053 274° West 79 91 2,400 360 Climbing Cleveland Center
05:32PM 42.2372 -83.5953 16° North 117 135 2,500  Climbing Cleveland Center
05:33PM 42.2589 -83.5628 48° Northeast 121 139 2,500  Level Cleveland Center
05:34PM 42.2844 -83.5442 28° Northeast 107 123 2,500  Level Cleveland Center
05:35PM 42.3028 -83.5647 320° Northwest 92 106 2,500  Level Cleveland Center
05:36PM 42.2978 -83.5983 259° West 90 104 2,500  Level Cleveland Center
05:37PM 42.2822 -83.6256 232° Southwest 90 104 2,500 -120 Level Cleveland Center
05:38PM 42.2711 -83.6558 244° Southwest 76 87 2,300 -300 Descending Cleveland Center
05:39PM 42.2600 -83.6778 236° Southwest 84 97 2,000 -420 Descending Cleveland Center
05:40PM 42.2447 -83.7022 230° Southwest 84 97 1,600 -480 Descending Cleveland Center
05:41PM 42.2336 -83.7297 241° Southwest 85 98 1,100  Descending Cleveland Center
05:42PM 42.2206 -83.7517 231° Southwest 78 90 1,600 540 Climbing Cleveland Center
05:43PM 42.2136 -83.7794 251° West 69 79 2,200 420 Climbing Cleveland Center
05:44PM 42.2047 -83.7956 233° Southwest 83 96 2,500 360 Climbing Cleveland Center
05:45PM 42.2261 -83.7744 36° Northeast 97 112 3,000 420 Climbing Cleveland Center
05:46PM 42.2433 -83.7528 43° Northeast 90 104 3,400 420 Climbing Cleveland Center
05:47PM 42.2628 -83.7283 43° Northeast 89 102 3,900 240 Climbing Cleveland Center
05:48PM 42.2864 -83.7100 30° Northeast 115 132 4,000  Climbing Cleveland Center
05:49PM 42.3164 -83.6833 33° Northeast 118 136 4,000  Level Cleveland Center
05:50PM 42.3419 -83.6594 35° Northeast 116 133 4,000  Level Cleveland Center
05:51PM 42.3675 -83.6353 35° Northeast 115 132 4,000  Level Cleveland Center
05:52PM 42.3953 -83.6086 35° Northeast 117 135 4,000  Level Cleveland Center
05:53PM 42.4211 -83.5844 35° Northeast 112 129 4,000  Level Cleveland Center
05:54PM 42.4564 -83.5833 North 108 124 4,000  Level Cleveland Center
05:55PM 42.4456 -83.6053 236° Southwest 110 127 4,000  Level Cleveland Center
05:56PM 42.4164 -83.5983 170° South 110 127 4,000 -240 Level Cleveland Center
05:57PM 42.3878 -83.5856 162° South 112 129 3,600 -540 Descending Cleveland Center
05:58PM 42.3608 -83.5703 157° South 100 115 3,000 -540 Descending Cleveland Center
05:59PM 42.3339 -83.5633 169° South 97 112 2,600 -300 Descending Cleveland Center
06:00PM 42.3094 -83.5483 156° South 97 112 2,500 -480 Descending Cleveland Center
06:01PM 42.2867 -83.5358 158° South 86 99 1,700 -600 Descending Cleveland Center
06:02PM 42.2617 -83.5375 183° South 87 100 1,400 -300 Descending Cleveland Center